Willard, WI (54493)

4:57 AM CDT on March 28, 2017 (GMT -0500)
Clear Creek Estates/Sigel Township/Cadott, WI | | Change Station
Active Advisory: Special Statement

Elev 1007 ft 44.91 °N, 91.14 °W | Updated 29 seconds ago

Partly Cloudy
Partly Cloudy
25.1 °F
Feels Like 25 °F
N
0.0
Wind Variable Wind from SSW

Today
High -- | Low -- °F
--% Chance of Precip.
Yesterday
High -- | Low -- °F
Precip. -- in
Pressure 30.05 in
Visibility 0.8 miles
Clouds Clear
Windchill 25 °F
Dew Point 24 °F
Humidity 98%
Rainfall 0.00 in
Snow Depth Not available.
6:50 AM 7:25 PM
New Moon, 0% visible
SPECI KMFI 280947Z AUTO 32003KT 3/4SM BR CLR M02/M03 A3005 RMK AO2 I1000 T10221028
Pressure 30.05 in
Visibility 0.8 miles
Clouds Clear
Windchill 25 °F
Dew Point 24 °F
Humidity 98%
Rainfall 0.00 in
Snow Depth Not available.
6:50 AM 7:25 PM
New Moon, 0% visible
SPECI KMFI 280947Z AUTO 32003KT 3/4SM BR CLR M02/M03 A3005 RMK AO2 I1000 T10221028

Get Your Daily Forecast Email!

Thanks for signing up!

Be on the lookout for a verification email in your inbox.

You'll start receiving severe weather alerts in your inbox..

×

10-Day Weather Forecast

Almanac

Astronomy

Mar. 28, 2017 Rise Set
Actual Time
Civil Twilight
Nautical Twilight
Astronomical Twilight
Moon
Length of Visible Light
Length of Day
Tomorrow will be .
, % of the Moon is Illuminated

Today's Extremes

State Highs State Lows

Community

WunderPhotos

Upload Photos

1,962,540 photos uploaded!

WunderBlog® & News

Nearby

Air Quality

  Air Quality AQ Index Pollutant
Not available.

Snow Depth

Station Depth Elevation

Earthquake Activity

City Distance Mag. Time & Date
Minimum magnitude displayed is 2.5.

Earthquake Activity

City Distance Mag. Time & Date
Minimum magnitude displayed is 2.5.

Coastal Water Temperatures

Place Temperature

Stations

Nearby Weather Stations

Station Location Temp. Windchill Dew Point Humidity Wind Precip. Elev Updated Type
                   

Watches & Warnings

Special Statement
Issued: 1:26 AM CDT Mar. 28, 2017 – National Weather Service

... Areas of fog developing...

Fog has started to develop across parts of the area early this
morning. The fog was quickly becoming thick at some locations,
reducing visibilities to under 1 mile.

The fog will continue to expand through the early morning hours,
with a threat for widespread dense fog.

Early morning travelers should be prepared for rapid, sudden
reductions in visibility. Slow down.


Rieck

126 am CDT Tue Mar 28 2017

... Areas of fog developing...

Fog has started to develop across parts of the area early this
morning. The fog was quickly becoming thick at some locations,
reducing visibilities to under 1 mile.

The fog will continue to expand through the early morning hours,
with a threat for widespread dense fog.

Early morning travelers should be prepared for rapid, sudden
reductions in visibility. Slow down.


Rieck